sensor_id;sensor_type;location;lat;lon;timestamp;P1;durP1;ratioP1;P2;durP2;ratioP2
28427;SDS011;15662;49.128;8.520;2022-07-29T00:01:17;2.60;;;2.40;;
28427;SDS011;15662;49.128;8.520;2022-07-29T00:03:46;3.30;;;2.67;;
28427;SDS011;15662;49.128;8.520;2022-07-29T00:06:14;3.72;;;2.40;;
28427;SDS011;15662;49.128;8.520;2022-07-29T00:08:43;2.72;;;2.20;;
28427;SDS011;15662;49.128;8.520;2022-07-29T00:11:10;2.40;;;2.20;;
28427;SDS011;15662;49.128;8.520;2022-07-29T00:13:38;2.75;;;2.42;;
28427;SDS011;15662;49.128;8.520;2022-07-29T00:16:06;2.70;;;2.17;;
28427;SDS011;15662;49.128;8.520;2022-07-29T00:18:34;2.47;;;2.28;;
28427;SDS011;15662;49.128;8.520;2022-07-29T00:21:02;4.05;;;2.40;;
28427;SDS011;15662;49.128;8.520;2022-07-29T00:23:30;2.45;;;2.25;;
28427;SDS011;15662;49.128;8.520;2022-07-29T00:26:02;5.90;;;2.38;;
28427;SDS011;15662;49.128;8.520;2022-07-29T00:28:30;3.42;;;2.50;;
28427;SDS011;15662;49.128;8.520;2022-07-29T00:30:58;2.38;;;2.28;;
28427;SDS011;15662;49.128;8.520;2022-07-29T00:33:28;2.70;;;2.50;;
28427;SDS011;15662;49.128;8.520;2022-07-29T00:35:55;2.30;;;2.20;;
28427;SDS011;15662;49.128;8.520;2022-07-29T00:38:23;2.47;;;2.20;;
28427;SDS011;15662;49.128;8.520;2022-07-29T00:40:51;5.43;;;2.30;;
28427;SDS011;15662;49.128;8.520;2022-07-29T00:43:20;2.50;;;2.30;;
28427;SDS011;15662;49.128;8.520;2022-07-29T00:45:48;3.88;;;2.40;;
28427;SDS011;15662;49.128;8.520;2022-07-29T00:48:15;4.07;;;2.80;;
28427;SDS011;15662;49.128;8.520;2022-07-29T00:50:43;2.38;;;2.22;;
28427;SDS011;15662;49.128;8.520;2022-07-29T00:53:11;2.33;;;2.22;;
28427;SDS011;15662;49.128;8.520;2022-07-29T00:55:39;2.95;;;2.33;;
28427;SDS011;15662;49.128;8.520;2022-07-29T00:58:08;6.55;;;2.30;;
28427;SDS011;15662;49.128;8.520;2022-07-29T01:00:38;2.97;;;2.40;;
28427;SDS011;15662;49.128;8.520;2022-07-29T01:03:27;2.50;;;2.30;;
28427;SDS011;15662;49.128;8.520;2022-07-29T01:05:54;2.88;;;2.50;;
28427;SDS011;15662;49.128;8.520;2022-07-29T01:08:22;2.78;;;2.50;;
28427;SDS011;15662;49.128;8.520;2022-07-29T01:10:50;2.17;;;1.98;;
28427;SDS011;15662;49.128;8.520;2022-07-29T01:13:20;2.60;;;2.40;;
28427;SDS011;15662;49.128;8.520;2022-07-29T01:15:51;2.28;;;2.08;;
28427;SDS011;15662;49.128;8.520;2022-07-29T01:18:34;2.25;;;2.15;;
28427;SDS011;15662;49.128;8.520;2022-07-29T01:27:26;2.67;;;2.47;;
28427;SDS011;15662;49.128;8.520;2022-07-29T01:30:14;2.40;;;2.20;;
28427;SDS011;15662;49.128;8.520;2022-07-29T01:32:42;2.30;;;2.10;;
28427;SDS011;15662;49.128;8.520;2022-07-29T01:35:18;2.30;;;2.20;;
28427;SDS011;15662;49.128;8.520;2022-07-29T01:38:12;2.45;;;2.25;;
28427;SDS011;15662;49.128;8.520;2022-07-29T01:40:46;2.50;;;2.40;;
28427;SDS011;15662;49.128;8.520;2022-07-29T01:43:30;2.45;;;2.35;;
28427;SDS011;15662;49.128;8.520;2022-07-29T01:46:09;2.55;;;2.13;;
28427;SDS011;15662;49.128;8.520;2022-07-29T01:48:48;3.72;;;2.30;;
28427;SDS011;15662;49.128;8.520;2022-07-29T01:51:25;3.33;;;2.40;;
28427;SDS011;15662;49.128;8.520;2022-07-29T01:54:51;2.47;;;2.28;;
28427;SDS011;15662;49.128;8.520;2022-07-29T01:56:59;3.40;;;2.40;;
28427;SDS011;15662;49.128;8.520;2022-07-29T01:59:28;2.50;;;2.30;;
28427;SDS011;15662;49.128;8.520;2022-07-29T02:01:58;2.50;;;2.30;;
28427;SDS011;15662;49.128;8.520;2022-07-29T02:04:28;2.25;;;2.05;;
28427;SDS011;15662;49.128;8.520;2022-07-29T02:06:58;2.40;;;2.20;;
28427;SDS011;15662;49.128;8.520;2022-07-29T02:09:32;2.53;;;2.33;;
28427;SDS011;15662;49.128;8.520;2022-07-29T02:12:03;3.08;;;2.35;;
28427;SDS011;15662;49.128;8.520;2022-07-29T02:14:36;3.53;;;2.10;;
28427;SDS011;15662;49.128;8.520;2022-07-29T02:17:09;2.95;;;2.22;;
28427;SDS011;15662;49.128;8.520;2022-07-29T02:19:40;2.33;;;2.13;;
28427;SDS011;15662;49.128;8.520;2022-07-29T02:24:40;2.10;;;1.98;;
28427;SDS011;15662;49.128;8.520;2022-07-29T02:27:08;2.08;;;1.90;;
28427;SDS011;15662;49.128;8.520;2022-07-29T02:29:38;2.65;;;2.40;;
28427;SDS011;15662;49.128;8.520;2022-07-29T02:32:07;2.70;;;2.40;;
28427;SDS011;15662;49.128;8.520;2022-07-29T02:34:38;3.45;;;2.42;;
28427;SDS011;15662;49.128;8.520;2022-07-29T02:37:08;2.50;;;2.30;;
28427;SDS011;15662;49.128;8.520;2022-07-29T02:39:39;2.55;;;2.35;;
28427;SDS011;15662;49.128;8.520;2022-07-29T02:42:10;2.83;;;2.63;;
28427;SDS011;15662;49.128;8.520;2022-07-29T02:44:44;2.38;;;2.28;;
28427;SDS011;15662;49.128;8.520;2022-07-29T02:50:22;2.50;;;2.30;;
28427;SDS011;15662;49.128;8.520;2022-07-29T02:53:05;2.35;;;2.15;;
28427;SDS011;15662;49.128;8.520;2022-07-29T02:55:57;2.22;;;2.13;;
28427;SDS011;15662;49.128;8.520;2022-07-29T02:58:29;2.47;;;2.28;;
28427;SDS011;15662;49.128;8.520;2022-07-29T03:01:04;3.00;;;2.35;;
28427;SDS011;15662;49.128;8.520;2022-07-29T03:03:48;2.83;;;2.63;;
28427;SDS011;15662;49.128;8.520;2022-07-29T03:06:20;2.50;;;2.30;;
28427;SDS011;15662;49.128;8.520;2022-07-29T03:09:06;3.65;;;2.38;;
28427;SDS011;15662;49.128;8.520;2022-07-29T03:11:40;3.53;;;3.20;;
28427;SDS011;15662;49.128;8.520;2022-07-29T03:14:17;2.85;;;2.65;;
28427;SDS011;15662;49.128;8.520;2022-07-29T03:16:47;2.97;;;2.78;;
28427;SDS011;15662;49.128;8.520;2022-07-29T03:19:16;2.63;;;2.42;;
28427;SDS011;15662;49.128;8.520;2022-07-29T03:21:46;3.85;;;2.67;;
28427;SDS011;15662;49.128;8.520;2022-07-29T03:24:24;3.33;;;2.55;;
28427;SDS011;15662;49.128;8.520;2022-07-29T03:27:03;2.35;;;2.25;;
28427;SDS011;15662;49.128;8.520;2022-07-29T03:29:32;2.72;;;2.53;;
28427;SDS011;15662;49.128;8.520;2022-07-29T03:32:01;2.40;;;2.30;;
28427;SDS011;15662;49.128;8.520;2022-07-29T03:34:35;3.28;;;2.80;;
28427;SDS011;15662;49.128;8.520;2022-07-29T03:37:05;2.90;;;2.70;;
28427;SDS011;15662;49.128;8.520;2022-07-29T03:39:35;2.90;;;2.70;;
28427;SDS011;15662;49.128;8.520;2022-07-29T03:42:08;3.03;;;2.83;;
28427;SDS011;15662;49.128;8.520;2022-07-29T03:44:40;3.05;;;2.78;;
28427;SDS011;15662;49.128;8.520;2022-07-29T03:47:11;3.00;;;2.80;;
28427;SDS011;15662;49.128;8.520;2022-07-29T03:49:42;3.85;;;2.58;;
28427;SDS011;15662;49.128;8.520;2022-07-29T03:52:14;2.97;;;2.72;;
28427;SDS011;15662;49.128;8.520;2022-07-29T03:54:42;2.90;;;2.70;;
28427;SDS011;15662;49.128;8.520;2022-07-29T03:57:10;2.88;;;2.67;;
28427;SDS011;15662;49.128;8.520;2022-07-29T03:59:39;3.03;;;2.83;;
28427;SDS011;15662;49.128;8.520;2022-07-29T04:02:09;2.90;;;2.70;;
28427;SDS011;15662;49.128;8.520;2022-07-29T04:04:38;3.15;;;2.75;;
28427;SDS011;15662;49.128;8.520;2022-07-29T04:07:06;2.60;;;2.50;;
28427;SDS011;15662;49.128;8.520;2022-07-29T04:09:38;2.75;;;2.55;;
28427;SDS011;15662;49.128;8.520;2022-07-29T04:12:06;4.32;;;3.10;;
28427;SDS011;15662;49.128;8.520;2022-07-29T04:14:35;3.35;;;3.05;;
28427;SDS011;15662;49.128;8.520;2022-07-29T04:17:03;3.25;;;2.85;;
28427;SDS011;15662;49.128;8.520;2022-07-29T04:19:32;2.95;;;2.75;;
28427;SDS011;15662;49.128;8.520;2022-07-29T04:22:00;3.03;;;2.72;;
28427;SDS011;15662;49.128;8.520;2022-07-29T04:24:28;3.40;;;3.10;;
28427;SDS011;15662;49.128;8.520;2022-07-29T04:26:56;3.20;;;3.00;;
28427;SDS011;15662;49.128;8.520;2022-07-29T04:29:24;5.47;;;2.85;;
28427;SDS011;15662;49.128;8.520;2022-07-29T04:31:52;3.33;;;3.03;;
28427;SDS011;15662;49.128;8.520;2022-07-29T04:34:20;3.35;;;3.15;;
28427;SDS011;15662;49.128;8.520;2022-07-29T04:36:48;3.65;;;3.13;;
28427;SDS011;15662;49.128;8.520;2022-07-29T04:39:15;3.47;;;3.25;;
28427;SDS011;15662;49.128;8.520;2022-07-29T04:41:49;4.40;;;3.38;;
28427;SDS011;15662;49.128;8.520;2022-07-29T04:44:20;3.35;;;3.10;;
28427;SDS011;15662;49.128;8.520;2022-07-29T04:46:55;3.35;;;3.05;;
28427;SDS011;15662;49.128;8.520;2022-07-29T04:49:24;3.30;;;3.00;;
28427;SDS011;15662;49.128;8.520;2022-07-29T04:51:52;3.22;;;3.00;;
28427;SDS011;15662;49.128;8.520;2022-07-29T04:54:20;3.63;;;3.28;;
28427;SDS011;15662;49.128;8.520;2022-07-29T04:56:51;3.38;;;3.17;;
28427;SDS011;15662;49.128;8.520;2022-07-29T04:59:18;3.78;;;3.28;;
28427;SDS011;15662;49.128;8.520;2022-07-29T05:01:46;3.80;;;3.40;;
28427;SDS011;15662;49.128;8.520;2022-07-29T05:04:14;3.72;;;3.22;;
28427;SDS011;15662;49.128;8.520;2022-07-29T05:06:43;3.67;;;3.38;;
28427;SDS011;15662;49.128;8.520;2022-07-29T05:09:11;3.50;;;3.30;;
28427;SDS011;15662;49.128;8.520;2022-07-29T05:11:39;4.35;;;3.22;;
28427;SDS011;15662;49.128;8.520;2022-07-29T05:14:07;4.15;;;3.22;;
28427;SDS011;15662;49.128;8.520;2022-07-29T05:16:35;5.05;;;3.50;;
28427;SDS011;15662;49.128;8.520;2022-07-29T05:19:03;3.53;;;3.25;;
28427;SDS011;15662;49.128;8.520;2022-07-29T05:21:34;3.70;;;3.40;;
28427;SDS011;15662;49.128;8.520;2022-07-29T05:24:02;3.92;;;3.10;;
28427;SDS011;15662;49.128;8.520;2022-07-29T05:26:30;3.60;;;3.30;;
28427;SDS011;15662;49.128;8.520;2022-07-29T05:28:58;4.05;;;3.22;;
28427;SDS011;15662;49.128;8.520;2022-07-29T05:31:26;3.70;;;3.40;;
28427;SDS011;15662;49.128;8.520;2022-07-29T05:33:54;4.85;;;3.50;;
28427;SDS011;15662;49.128;8.520;2022-07-29T05:36:22;5.75;;;3.90;;
28427;SDS011;15662;49.128;8.520;2022-07-29T05:38:49;4.13;;;3.70;;
28427;SDS011;15662;49.128;8.520;2022-07-29T05:41:19;6.13;;;4.20;;
28427;SDS011;15662;49.128;8.520;2022-07-29T05:43:47;5.88;;;4.00;;
28427;SDS011;15662;49.128;8.520;2022-07-29T05:46:15;4.15;;;3.85;;
28427;SDS011;15662;49.128;8.520;2022-07-29T05:48:43;4.10;;;3.80;;
28427;SDS011;15662;49.128;8.520;2022-07-29T05:51:11;4.85;;;3.70;;
28427;SDS011;15662;49.128;8.520;2022-07-29T05:53:39;4.28;;;3.70;;
28427;SDS011;15662;49.128;8.520;2022-07-29T05:56:07;4.45;;;3.58;;
28427;SDS011;15662;49.128;8.520;2022-07-29T05:58:35;3.65;;;3.35;;
28427;SDS011;15662;49.128;8.520;2022-07-29T06:01:03;3.75;;;3.35;;
28427;SDS011;15662;49.128;8.520;2022-07-29T06:03:31;3.45;;;3.15;;
28427;SDS011;15662;49.128;8.520;2022-07-29T06:05:59;3.50;;;3.20;;
28427;SDS011;15662;49.128;8.520;2022-07-29T06:08:27;4.45;;;3.35;;
28427;SDS011;15662;49.128;8.520;2022-07-29T06:10:55;4.05;;;3.03;;
28427;SDS011;15662;49.128;8.520;2022-07-29T06:13:23;5.45;;;3.22;;
28427;SDS011;15662;49.128;8.520;2022-07-29T06:15:51;3.83;;;3.17;;
28427;SDS011;15662;49.128;8.520;2022-07-29T06:18:19;3.67;;;3.35;;
28427;SDS011;15662;49.128;8.520;2022-07-29T06:20:47;4.00;;;3.60;;
28427;SDS011;15662;49.128;8.520;2022-07-29T06:23:15;3.33;;;3.03;;
28427;SDS011;15662;49.128;8.520;2022-07-29T06:25:44;3.53;;;3.22;;
28427;SDS011;15662;49.128;8.520;2022-07-29T06:28:13;4.10;;;3.55;;
28427;SDS011;15662;49.128;8.520;2022-07-29T06:30:40;8.50;;;3.42;;
28427;SDS011;15662;49.128;8.520;2022-07-29T06:33:08;4.07;;;3.50;;
28427;SDS011;15662;49.128;8.520;2022-07-29T06:35:36;3.45;;;3.15;;
28427;SDS011;15662;49.128;8.520;2022-07-29T06:38:08;3.75;;;3.45;;
28427;SDS011;15662;49.128;8.520;2022-07-29T06:40:57;3.33;;;3.03;;
28427;SDS011;15662;49.128;8.520;2022-07-29T06:43:33;3.70;;;3.08;;
28427;SDS011;15662;49.128;8.520;2022-07-29T06:46:20;3.45;;;3.25;;
28427;SDS011;15662;49.128;8.520;2022-07-29T06:48:50;3.60;;;3.25;;
28427;SDS011;15662;49.128;8.520;2022-07-29T06:51:19;3.15;;;2.95;;
28427;SDS011;15662;49.128;8.520;2022-07-29T06:53:52;3.33;;;3.03;;
28427;SDS011;15662;49.128;8.520;2022-07-29T06:56:29;3.88;;;3.00;;
28427;SDS011;15662;49.128;8.520;2022-07-29T06:59:06;5.35;;;2.90;;
28427;SDS011;15662;49.128;8.520;2022-07-29T07:01:36;3.97;;;2.95;;
28427;SDS011;15662;49.128;8.520;2022-07-29T07:04:10;3.47;;;3.10;;
28427;SDS011;15662;49.128;8.520;2022-07-29T07:06:39;2.88;;;2.67;;
28427;SDS011;15662;49.128;8.520;2022-07-29T07:09:07;2.97;;;2.75;;
28427;SDS011;15662;49.128;8.520;2022-07-29T07:11:35;3.13;;;2.78;;
28427;SDS011;15662;49.128;8.520;2022-07-29T07:14:03;3.72;;;2.80;;
28427;SDS011;15662;49.128;8.520;2022-07-29T07:16:31;4.28;;;2.92;;
28427;SDS011;15662;49.128;8.520;2022-07-29T07:18:59;2.80;;;2.47;;
28427;SDS011;15662;49.128;8.520;2022-07-29T07:21:28;2.83;;;2.58;;
28427;SDS011;15662;49.128;8.520;2022-07-29T07:23:57;4.75;;;2.75;;
28427;SDS011;15662;49.128;8.520;2022-07-29T07:26:26;6.70;;;3.10;;
28427;SDS011;15662;49.128;8.520;2022-07-29T07:28:54;2.88;;;2.63;;
28427;SDS011;15662;49.128;8.520;2022-07-29T07:31:22;2.97;;;2.70;;
28427;SDS011;15662;49.128;8.520;2022-07-29T07:33:51;4.18;;;2.50;;
28427;SDS011;15662;49.128;8.520;2022-07-29T07:36:20;2.80;;;2.42;;
28427;SDS011;15662;49.128;8.520;2022-07-29T07:38:49;3.70;;;2.60;;
28427;SDS011;15662;49.128;8.520;2022-07-29T07:41:17;3.55;;;2.80;;
28427;SDS011;15662;49.128;8.520;2022-07-29T07:43:45;4.95;;;2.45;;
28427;SDS011;15662;49.128;8.520;2022-07-29T07:46:13;4.68;;;2.40;;
28427;SDS011;15662;49.128;8.520;2022-07-29T07:48:43;3.90;;;2.67;;
28427;SDS011;15662;49.128;8.520;2022-07-29T07:51:11;2.40;;;2.20;;
28427;SDS011;15662;49.128;8.520;2022-07-29T07:53:39;2.75;;;2.47;;
28427;SDS011;15662;49.128;8.520;2022-07-29T07:56:07;2.50;;;2.30;;
28427;SDS011;15662;49.128;8.520;2022-07-29T07:58:38;3.08;;;2.42;;
28427;SDS011;15662;49.128;8.520;2022-07-29T08:01:06;3.00;;;2.80;;
28427;SDS011;15662;49.128;8.520;2022-07-29T08:03:35;2.60;;;2.40;;
28427;SDS011;15662;49.128;8.520;2022-07-29T08:06:04;2.55;;;2.40;;
28427;SDS011;15662;49.128;8.520;2022-07-29T08:08:33;5.05;;;2.47;;
28427;SDS011;15662;49.128;8.520;2022-07-29T08:11:01;2.85;;;2.30;;
28427;SDS011;15662;49.128;8.520;2022-07-29T08:13:36;2.47;;;2.28;;
28427;SDS011;15662;49.128;8.520;2022-07-29T08:16:05;2.85;;;2.25;;
28427;SDS011;15662;49.128;8.520;2022-07-29T08:18:43;2.65;;;2.20;;
28427;SDS011;15662;49.128;8.520;2022-07-29T08:21:15;2.20;;;2.10;;
28427;SDS011;15662;49.128;8.520;2022-07-29T08:23:44;2.20;;;2.10;;
28427;SDS011;15662;49.128;8.520;2022-07-29T08:26:24;2.47;;;2.30;;
28427;SDS011;15662;49.128;8.520;2022-07-29T08:28:52;2.20;;;2.10;;
28427;SDS011;15662;49.128;8.520;2022-07-29T08:31:21;3.17;;;2.35;;
28427;SDS011;15662;49.128;8.520;2022-07-29T08:33:49;3.15;;;2.15;;
28427;SDS011;15662;49.128;8.520;2022-07-29T08:36:17;3.40;;;3.10;;
28427;SDS011;15662;49.128;8.520;2022-07-29T08:38:47;2.70;;;2.50;;
28427;SDS011;15662;49.128;8.520;2022-07-29T08:41:17;2.38;;;2.22;;
28427;SDS011;15662;49.128;8.520;2022-07-29T08:43:47;2.17;;;2.03;;
28427;SDS011;15662;49.128;8.520;2022-07-29T08:46:16;2.03;;;1.83;;
28427;SDS011;15662;49.128;8.520;2022-07-29T08:48:46;2.88;;;1.92;;
28427;SDS011;15662;49.128;8.520;2022-07-29T08:51:15;2.00;;;1.90;;
28427;SDS011;15662;49.128;8.520;2022-07-29T08:53:47;4.35;;;2.20;;
28427;SDS011;15662;49.128;8.520;2022-07-29T08:56:16;2.72;;;2.00;;
28427;SDS011;15662;49.128;8.520;2022-07-29T08:58:46;2.00;;;1.80;;
28427;SDS011;15662;49.128;8.520;2022-07-29T09:01:21;2.20;;;2.00;;
28427;SDS011;15662;49.128;8.520;2022-07-29T09:04:09;2.28;;;2.05;;
28427;SDS011;15662;49.128;8.520;2022-07-29T09:06:42;2.17;;;1.98;;
28427;SDS011;15662;49.128;8.520;2022-07-29T09:09:14;2.10;;;2.00;;
28427;SDS011;15662;49.128;8.520;2022-07-29T09:11:43;3.63;;;2.25;;
28427;SDS011;15662;49.128;8.520;2022-07-29T09:14:11;2.25;;;2.05;;
28427;SDS011;15662;49.128;8.520;2022-07-29T09:16:44;3.30;;;1.95;;
28427;SDS011;15662;49.128;8.520;2022-07-29T09:21:54;3.22;;;1.80;;
28427;SDS011;15662;49.128;8.520;2022-07-29T09:24:26;3.05;;;2.15;;
28427;SDS011;15662;49.128;8.520;2022-07-29T09:29:59;2.83;;;1.83;;
28427;SDS011;15662;49.128;8.520;2022-07-29T09:32:33;4.75;;;1.73;;
28427;SDS011;15662;49.128;8.520;2022-07-29T09:35:21;3.97;;;2.15;;
28427;SDS011;15662;49.128;8.520;2022-07-29T09:37:52;2.40;;;1.90;;
28427;SDS011;15662;49.128;8.520;2022-07-29T09:40:21;2.92;;;2.00;;
28427;SDS011;15662;49.128;8.520;2022-07-29T09:42:51;2.15;;;1.85;;
28427;SDS011;15662;49.128;8.520;2022-07-29T09:51:01;1.87;;;1.77;;
28427;SDS011;15662;49.128;8.520;2022-07-29T09:53:30;3.97;;;1.73;;
28427;SDS011;15662;49.128;8.520;2022-07-29T09:56:06;2.20;;;1.85;;
28427;SDS011;15662;49.128;8.520;2022-07-29T09:58:36;1.65;;;1.55;;
28427;SDS011;15662;49.128;8.520;2022-07-29T10:01:03;4.03;;;1.90;;
28427;SDS011;15662;49.128;8.520;2022-07-29T10:03:32;3.10;;;1.80;;
28427;SDS011;15662;49.128;8.520;2022-07-29T10:06:17;1.98;;;1.80;;
28427;SDS011;15662;49.128;8.520;2022-07-29T10:08:45;1.88;;;1.70;;
28427;SDS011;15662;49.128;8.520;2022-07-29T10:11:14;2.35;;;2.08;;
28427;SDS011;15662;49.128;8.520;2022-07-29T10:13:44;2.63;;;1.85;;
28427;SDS011;15662;49.128;8.520;2022-07-29T10:18:43;3.45;;;1.83;;
28427;SDS011;15662;49.128;8.520;2022-07-29T10:21:13;3.53;;;1.60;;
28427;SDS011;15662;49.128;8.520;2022-07-29T10:24:01;5.18;;;1.60;;
28427;SDS011;15662;49.128;8.520;2022-07-29T10:26:31;1.80;;;1.70;;
28427;SDS011;15662;49.128;8.520;2022-07-29T10:29:00;2.03;;;1.40;;
28427;SDS011;15662;49.128;8.520;2022-07-29T10:31:29;1.75;;;1.65;;
28427;SDS011;15662;49.128;8.520;2022-07-29T10:43:53;4.30;;;1.70;;
28427;SDS011;15662;49.128;8.520;2022-07-29T10:46:26;1.70;;;1.60;;
28427;SDS011;15662;49.128;8.520;2022-07-29T10:59:43;2.30;;;1.60;;
28427;SDS011;15662;49.128;8.520;2022-07-29T11:02:44;2.28;;;1.80;;
28427;SDS011;15662;49.128;8.520;2022-07-29T11:05:19;1.50;;;1.45;;
28427;SDS011;15662;49.128;8.520;2022-07-29T11:10:53;1.67;;;1.58;;
28427;SDS011;15662;49.128;8.520;2022-07-29T11:13:51;2.88;;;1.75;;
28427;SDS011;15662;49.128;8.520;2022-07-29T11:16:23;3.78;;;1.60;;
28427;SDS011;15662;49.128;8.520;2022-07-29T11:21:40;5.75;;;1.95;;
28427;SDS011;15662;49.128;8.520;2022-07-29T11:24:31;8.43;;;1.98;;
28427;SDS011;15662;49.128;8.520;2022-07-29T11:27:11;8.65;;;1.60;;
28427;SDS011;15662;49.128;8.520;2022-07-29T11:32:36;1.60;;;1.50;;
28427;SDS011;15662;49.128;8.520;2022-07-29T11:35:21;2.10;;;1.90;;
28427;SDS011;15662;49.128;8.520;2022-07-29T11:38:25;1.90;;;1.80;;
28427;SDS011;15662;49.128;8.520;2022-07-29T11:44:04;2.72;;;1.60;;
28427;SDS011;15662;49.128;8.520;2022-07-29T11:46:48;3.72;;;1.73;;
28427;SDS011;15662;49.128;8.520;2022-07-29T11:51:59;1.80;;;1.67;;
28427;SDS011;15662;49.128;8.520;2022-07-29T11:54:33;2.53;;;1.67;;
28427;SDS011;15662;49.128;8.520;2022-07-29T11:57:22;6.78;;;1.80;;
28427;SDS011;15662;49.128;8.520;2022-07-29T12:00:04;2.00;;;1.48;;
28427;SDS011;15662;49.128;8.520;2022-07-29T12:02:39;4.22;;;1.70;;
28427;SDS011;15662;49.128;8.520;2022-07-29T12:05:15;1.67;;;1.42;;
28427;SDS011;15662;49.128;8.520;2022-07-29T12:08:06;1.98;;;1.60;;
28427;SDS011;15662;49.128;8.520;2022-07-29T12:10:47;5.07;;;1.70;;
28427;SDS011;15662;49.128;8.520;2022-07-29T12:13:20;1.88;;;1.77;;
28427;SDS011;15662;49.128;8.520;2022-07-29T12:16:03;1.70;;;1.60;;
28427;SDS011;15662;49.128;8.520;2022-07-29T12:18:31;1.70;;;1.60;;
28427;SDS011;15662;49.128;8.520;2022-07-29T12:21:00;2.75;;;1.50;;
28427;SDS011;15662;49.128;8.520;2022-07-29T12:23:32;2.22;;;1.60;;
28427;SDS011;15662;49.128;8.520;2022-07-29T12:26:05;1.75;;;1.65;;
28427;SDS011;15662;49.128;8.520;2022-07-29T12:28:48;1.70;;;1.60;;
28427;SDS011;15662;49.128;8.520;2022-07-29T12:31:16;2.65;;;1.70;;
28427;SDS011;15662;49.128;8.520;2022-07-29T12:34:04;1.42;;;1.30;;
28427;SDS011;15662;49.128;8.520;2022-07-29T12:36:32;1.60;;;1.50;;
28427;SDS011;15662;49.128;8.520;2022-07-29T12:39:00;1.88;;;1.60;;
28427;SDS011;15662;49.128;8.520;2022-07-29T12:41:29;3.25;;;1.85;;
28427;SDS011;15662;49.128;8.520;2022-07-29T12:43:58;5.18;;;1.65;;
28427;SDS011;15662;49.128;8.520;2022-07-29T12:46:26;2.55;;;1.67;;
28427;SDS011;15662;49.128;8.520;2022-07-29T12:48:54;1.70;;;1.60;;
28427;SDS011;15662;49.128;8.520;2022-07-29T12:54:03;3.13;;;1.73;;
28427;SDS011;15662;49.128;8.520;2022-07-29T12:56:40;1.52;;;1.42;;
28427;SDS011;15662;49.128;8.520;2022-07-29T12:59:15;1.63;;;1.52;;
28427;SDS011;15662;49.128;8.520;2022-07-29T13:01:46;1.95;;;1.85;;
28427;SDS011;15662;49.128;8.520;2022-07-29T13:04:30;2.08;;;1.88;;
28427;SDS011;15662;49.128;8.520;2022-07-29T13:07:03;1.88;;;1.60;;
28427;SDS011;15662;49.128;8.520;2022-07-29T13:09:37;2.30;;;1.40;;
28427;SDS011;15662;49.128;8.520;2022-07-29T13:12:08;1.48;;;1.35;;
28427;SDS011;15662;49.128;8.520;2022-07-29T13:14:39;2.15;;;1.58;;
28427;SDS011;15662;49.128;8.520;2022-07-29T13:17:14;1.42;;;1.33;;
28427;SDS011;15662;49.128;8.520;2022-07-29T13:19:49;1.30;;;1.20;;
28427;SDS011;15662;49.128;8.520;2022-07-29T13:22:21;2.78;;;1.35;;
28427;SDS011;15662;49.128;8.520;2022-07-29T13:24:52;1.45;;;1.35;;
28427;SDS011;15662;49.128;8.520;2022-07-29T13:27:24;1.15;;;1.10;;
28427;SDS011;15662;49.128;8.520;2022-07-29T13:29:56;1.30;;;1.20;;
28427;SDS011;15662;49.128;8.520;2022-07-29T13:32:25;1.83;;;1.45;;
28427;SDS011;15662;49.128;8.520;2022-07-29T13:34:56;11.35;;;1.42;;
28427;SDS011;15662;49.128;8.520;2022-07-29T13:37:27;1.48;;;1.30;;
28427;SDS011;15662;49.128;8.520;2022-07-29T13:39:56;4.72;;;1.25;;
28427;SDS011;15662;49.128;8.520;2022-07-29T13:42:26;2.03;;;1.27;;
28427;SDS011;15662;49.128;8.520;2022-07-29T13:44:54;1.05;;;1.00;;
28427;SDS011;15662;49.128;8.520;2022-07-29T13:47:22;1.08;;;1.02;;
28427;SDS011;15662;49.128;8.520;2022-07-29T13:49:59;2.95;;;1.17;;
28427;SDS011;15662;49.128;8.520;2022-07-29T13:52:28;1.10;;;1.10;;
28427;SDS011;15662;49.128;8.520;2022-07-29T13:54:57;1.98;;;1.20;;
28427;SDS011;15662;49.128;8.520;2022-07-29T13:57:25;1.75;;;1.00;;
28427;SDS011;15662;49.128;8.520;2022-07-29T13:59:53;0.85;;;0.82;;
28427;SDS011;15662;49.128;8.520;2022-07-29T14:02:21;0.90;;;0.85;;
28427;SDS011;15662;49.128;8.520;2022-07-29T14:07:21;1.00;;;1.00;;
28427;SDS011;15662;49.128;8.520;2022-07-29T14:09:50;1.38;;;1.10;;
28427;SDS011;15662;49.128;8.520;2022-07-29T14:12:18;1.30;;;0.88;;
28427;SDS011;15662;49.128;8.520;2022-07-29T14:14:46;2.08;;;0.90;;
28427;SDS011;15662;49.128;8.520;2022-07-29T14:17:14;1.95;;;0.90;;
28427;SDS011;15662;49.128;8.520;2022-07-29T14:19:42;0.80;;;0.80;;
28427;SDS011;15662;49.128;8.520;2022-07-29T14:22:10;2.03;;;1.05;;
28427;SDS011;15662;49.128;8.520;2022-07-29T14:24:38;2.58;;;0.80;;
28427;SDS011;15662;49.128;8.520;2022-07-29T14:27:07;7.70;;;0.80;;
28427;SDS011;15662;49.128;8.520;2022-07-29T14:29:35;1.25;;;1.13;;
28427;SDS011;15662;49.128;8.520;2022-07-29T14:32:07;6.72;;;0.98;;
28427;SDS011;15662;49.128;8.520;2022-07-29T14:34:38;0.80;;;0.80;;
28427;SDS011;15662;49.128;8.520;2022-07-29T14:37:06;0.80;;;0.80;;
28427;SDS011;15662;49.128;8.520;2022-07-29T14:39:35;1.55;;;0.90;;
28427;SDS011;15662;49.128;8.520;2022-07-29T14:42:09;1.23;;;0.82;;
28427;SDS011;15662;49.128;8.520;2022-07-29T14:44:42;1.15;;;1.08;;
28427;SDS011;15662;49.128;8.520;2022-07-29T14:47:10;0.98;;;0.73;;
28427;SDS011;15662;49.128;8.520;2022-07-29T14:49:38;1.13;;;1.00;;
28427;SDS011;15662;49.128;8.520;2022-07-29T14:52:06;2.28;;;0.88;;
28427;SDS011;15662;49.128;8.520;2022-07-29T14:54:34;0.90;;;0.80;;
28427;SDS011;15662;49.128;8.520;2022-07-29T14:57:02;1.48;;;1.00;;
28427;SDS011;15662;49.128;8.520;2022-07-29T14:59:29;2.00;;;0.73;;
28427;SDS011;15662;49.128;8.520;2022-07-29T15:01:57;1.88;;;1.00;;
28427;SDS011;15662;49.128;8.520;2022-07-29T15:04:26;3.03;;;1.00;;
28427;SDS011;15662;49.128;8.520;2022-07-29T15:06:54;1.40;;;0.80;;
28427;SDS011;15662;49.128;8.520;2022-07-29T15:09:22;0.70;;;0.70;;
28427;SDS011;15662;49.128;8.520;2022-07-29T15:11:50;2.17;;;0.98;;
28427;SDS011;15662;49.128;8.520;2022-07-29T15:14:18;4.40;;;1.00;;
28427;SDS011;15662;49.128;8.520;2022-07-29T15:16:46;4.30;;;0.93;;
28427;SDS011;15662;49.128;8.520;2022-07-29T15:19:14;2.45;;;0.90;;
28427;SDS011;15662;49.128;8.520;2022-07-29T15:21:42;1.88;;;0.90;;
28427;SDS011;15662;49.128;8.520;2022-07-29T15:24:15;0.90;;;0.90;;
28427;SDS011;15662;49.128;8.520;2022-07-29T15:26:44;1.10;;;0.80;;
28427;SDS011;15662;49.128;8.520;2022-07-29T15:29:13;0.85;;;0.73;;
28427;SDS011;15662;49.128;8.520;2022-07-29T15:31:41;0.80;;;0.80;;
28427;SDS011;15662;49.128;8.520;2022-07-29T15:34:10;1.38;;;0.70;;
28427;SDS011;15662;49.128;8.520;2022-07-29T15:36:38;4.07;;;0.70;;
28427;SDS011;15662;49.128;8.520;2022-07-29T15:39:21;1.15;;;0.90;;
28427;SDS011;15662;49.128;8.520;2022-07-29T15:41:50;0.68;;;0.68;;
28427;SDS011;15662;49.128;8.520;2022-07-29T15:44:18;1.58;;;0.90;;
28427;SDS011;15662;49.128;8.520;2022-07-29T15:46:47;0.70;;;0.70;;
28427;SDS011;15662;49.128;8.520;2022-07-29T15:49:36;2.03;;;0.65;;
28427;SDS011;15662;49.128;8.520;2022-07-29T15:52:16;0.73;;;0.65;;
28427;SDS011;15662;49.128;8.520;2022-07-29T15:54:53;2.00;;;0.80;;
28427;SDS011;15662;49.128;8.520;2022-07-29T15:57:22;0.70;;;0.70;;
28427;SDS011;15662;49.128;8.520;2022-07-29T15:59:51;0.73;;;0.73;;
28427;SDS011;15662;49.128;8.520;2022-07-29T16:02:19;1.75;;;0.90;;
28427;SDS011;15662;49.128;8.520;2022-07-29T16:04:47;1.33;;;0.80;;
28427;SDS011;15662;49.128;8.520;2022-07-29T16:07:15;0.80;;;0.68;;
28427;SDS011;15662;49.128;8.520;2022-07-29T16:09:43;0.98;;;0.73;;
28427;SDS011;15662;49.128;8.520;2022-07-29T16:12:18;1.00;;;0.82;;
28427;SDS011;15662;49.128;8.520;2022-07-29T16:14:47;0.70;;;0.70;;
28427;SDS011;15662;49.128;8.520;2022-07-29T16:17:17;1.67;;;0.60;;
28427;SDS011;15662;49.128;8.520;2022-07-29T16:19:45;0.90;;;0.75;;